createdAt,value
2023-04-20T00:00:06.067Z,5.5
2023-04-20T00:01:06.446Z,5.5
2023-04-20T00:02:06.939Z,5.4
2023-04-20T00:03:07.317Z,5.5
2023-04-20T00:04:06.434Z,5.5
2023-04-20T00:05:06.492Z,5.4
2023-04-20T00:06:06.777Z,5
2023-04-20T00:07:06.004Z,5
2023-04-20T00:08:06.264Z,5.4
2023-04-20T00:09:06.400Z,5.4
2023-04-20T00:10:06.945Z,5.4
2023-04-20T00:11:06.116Z,5.4
2023-04-20T00:12:06.399Z,5.4
2023-04-20T00:13:06.806Z,5.4
2023-04-20T00:14:06.891Z,5
2023-04-20T00:15:06.576Z,5.3
2023-04-20T00:16:06.481Z,5.3
2023-04-20T00:17:06.801Z,5.3
2023-04-20T00:18:06.986Z,5.3
2023-04-20T00:19:05.931Z,5.2
2023-04-20T00:20:06.462Z,5.3
2023-04-20T00:21:06.122Z,5.3
2023-04-20T00:22:06.357Z,5.2
2023-04-20T00:23:06.602Z,5.2
2023-04-20T00:24:06.671Z,5.2
2023-04-20T00:25:07.386Z,5.2
2023-04-20T00:26:06.024Z,5.2
2023-04-20T00:27:06.600Z,5.2
2023-04-20T00:28:06.610Z,5.2
2023-04-20T00:29:07.012Z,5.2
2023-04-20T00:30:06.249Z,5.2
2023-04-20T00:31:06.673Z,5.2
2023-04-20T00:32:06.280Z,5.1
2023-04-20T00:33:06.739Z,5.1
2023-04-20T00:34:05.652Z,5.1
2023-04-20T00:35:07.036Z,5.1
2023-04-20T00:36:06.097Z,5.1
2023-04-20T00:37:06.800Z,5
2023-04-20T00:38:06.636Z,5
2023-04-20T00:43:06.170Z,5
2023-04-20T00:44:06.026Z,4.9
2023-04-20T00:45:06.635Z,4.9
2023-04-20T00:46:06.247Z,4.9
2023-04-20T00:47:06.419Z,4.9
2023-04-20T00:48:06.561Z,4.9
2023-04-20T00:49:06.745Z,4.9
2023-04-20T00:50:06.018Z,4.8
2023-04-20T00:51:06.105Z,4.8
2023-04-20T00:52:06.402Z,4.8
2023-04-20T00:53:06.583Z,4.8
2023-04-20T00:54:06.559Z,4.8
2023-04-20T00:55:06.041Z,4.8
2023-04-20T00:56:06.148Z,4.8
2023-04-20T00:57:06.416Z,4.8
2023-04-20T01:01:06.125Z,4.7
2023-04-20T01:02:06.613Z,4.8
2023-04-20T01:03:07.038Z,4.8
2023-04-20T01:04:06.170Z,4.8
2023-04-20T01:06:06.606Z,4.7
2023-04-20T01:07:06.975Z,4.7
2023-04-20T01:08:06.897Z,4.7
2023-04-20T01:09:05.934Z,4.7
2023-04-20T01:10:06.335Z,4.6
2023-04-20T01:11:06.876Z,4.6
2023-04-20T01:14:06.668Z,4.6
2023-04-20T01:15:07.042Z,4.6
2023-04-20T01:16:06.176Z,4.6
2023-04-20T01:17:06.384Z,4.5
2023-04-20T01:18:06.634Z,4.5
2023-04-20T01:19:06.602Z,4.5
2023-04-20T01:20:07.087Z,4.5
2023-04-20T01:21:06.191Z,4.5
2023-04-20T01:22:06.483Z,4.5
2023-04-20T01:23:06.708Z,4.5
2023-04-20T01:24:05.979Z,4.5
2023-04-20T01:25:06.340Z,4.4
2023-04-20T01:26:06.578Z,4.5
2023-04-20T01:27:06.893Z,4.4
2023-04-20T01:28:06.050Z,4.4
2023-04-20T01:29:06.439Z,4.4
2023-04-20T01:30:06.634Z,4.4
2023-04-20T01:31:06.104Z,4.4
2023-04-20T01:32:06.305Z,4.4
2023-04-20T01:33:06.781Z,4.4
2023-04-20T01:34:06.560Z,4.4
2023-04-20T01:37:06.657Z,4.4
2023-04-20T01:38:06.772Z,4.4
2023-04-20T01:39:06.200Z,4.4
2023-04-20T01:40:06.426Z,4.4
2023-04-20T01:41:06.697Z,4.4
2023-04-20T01:42:06.833Z,4
2023-04-20T01:43:05.998Z,4.4
2023-04-20T01:44:06.088Z,4.4
2023-04-20T01:45:06.489Z,4
2023-04-20T01:46:06.608Z,4.4
2023-04-20T01:47:07.136Z,4.4
2023-04-20T01:48:06.427Z,4.4
2023-04-20T01:49:06.683Z,4.4
2023-04-20T01:50:06.107Z,4.4
2023-04-20T01:51:06.365Z,4.4
2023-04-20T01:52:06.667Z,4.3
2023-04-20T01:53:06.977Z,4.3
2023-04-20T01:54:05.977Z,4.3
2023-04-20T01:55:06.241Z,4.3
2023-04-20T01:56:06.362Z,4.3
2023-04-20T01:57:06.685Z,4.3
2023-04-20T01:58:06.030Z,4.3
2023-04-20T01:59:06.175Z,4.3
2023-04-20T02:00:06.609Z,4.3
2023-04-20T02:01:06.965Z,4.2
2023-04-20T02:02:06.215Z,4.3
2023-04-20T02:03:06.985Z,4.2
2023-04-20T02:04:06.915Z,4.3
2023-04-20T02:05:06.982Z,4.3
2023-04-20T02:06:06.220Z,4.3
2023-04-20T02:07:06.381Z,4.3
2023-04-20T02:08:06.717Z,4.3
2023-04-20T02:09:06.191Z,4.3
2023-04-20T02:10:06.380Z,4.2
2023-04-20T02:11:06.765Z,4.2
2023-04-20T02:12:06.910Z,4.2
2023-04-20T02:13:06.039Z,4.2
2023-04-20T02:14:06.311Z,4.2
2023-04-20T02:15:06.813Z,4.2
2023-04-20T02:16:06.089Z,4.3
2023-04-20T02:17:06.226Z,4.2
2023-04-20T02:18:06.385Z,4.2
2023-04-20T02:19:06.767Z,4.2
2023-04-20T02:20:05.998Z,4.2
2023-04-20T02:21:06.238Z,4.2
2023-04-20T02:22:06.369Z,4.2
2023-04-20T02:23:06.615Z,4.2
2023-04-20T02:24:06.976Z,4.2
2023-04-20T02:25:06.247Z,4.2
2023-04-20T02:26:06.731Z,4.2
2023-04-20T02:31:05.974Z,4.2
2023-04-20T02:32:06.283Z,4.2
2023-04-20T02:33:06.971Z,4.2
2023-04-20T02:34:06.043Z,4.2
2023-04-20T02:35:06.485Z,4.2
2023-04-20T02:36:06.671Z,4.2
2023-04-20T02:37:06.584Z,4.2
2023-04-20T02:38:06.205Z,4.2
2023-04-20T02:39:06.305Z,3
2023-04-20T02:40:06.938Z,4.2
2023-04-20T02:41:06.014Z,4.2
2023-04-20T02:42:06.241Z,4.2
2023-04-20T02:43:06.417Z,4.2
2023-04-20T02:44:06.760Z,4.2
2023-04-20T02:45:06.024Z,4.2
2023-04-20T02:46:06.382Z,4.2
2023-04-20T02:47:06.506Z,4.2
2023-04-20T02:48:06.825Z,4.2
2023-04-20T02:49:06.616Z,4.2
2023-04-20T02:50:06.008Z,4.2
2023-04-20T02:51:06.294Z,4
2023-04-20T02:52:06.726Z,4
2023-04-20T02:53:05.801Z,4.2
2023-04-20T02:54:06.361Z,4.2
2023-04-20T02:55:06.522Z,4.2
2023-04-20T02:56:06.618Z,4.2
2023-04-20T02:57:06.966Z,4.2
2023-04-20T02:58:06.226Z,4.2
2023-04-20T02:59:06.437Z,4.2
2023-04-20T03:00:06.605Z,4.2
2023-04-20T03:01:06.727Z,4.2
2023-04-20T03:02:07.168Z,4.2
2023-04-20T03:03:06.503Z,4.2
2023-04-20T03:04:07.184Z,4.2
2023-04-20T03:06:06.165Z,4.2
2023-04-20T03:07:06.364Z,4.2
2023-04-20T03:08:06.532Z,4.2
2023-04-20T03:09:06.836Z,4.2
2023-04-20T03:10:05.954Z,4.2
2023-04-20T03:11:06.344Z,4.2
2023-04-20T03:15:06.150Z,4.2
2023-04-20T03:16:06.521Z,4.3
2023-04-20T03:18:07.149Z,4.2
2023-04-20T03:19:06.056Z,4.2
2023-04-20T03:20:06.515Z,4.3
2023-04-20T03:21:06.433Z,4.2
2023-04-20T03:22:06.840Z,4.2
2023-04-20T03:23:07.034Z,4.3
2023-04-20T03:28:06.191Z,4.3
2023-04-20T03:29:06.457Z,4.3
2023-04-20T03:30:06.790Z,4.3
2023-04-20T03:31:06.834Z,4.3
2023-04-20T03:32:06.033Z,4.3
2023-04-20T03:33:06.456Z,4.3
2023-04-20T03:34:06.609Z,4.3
2023-04-20T03:35:06.794Z,4.3
2023-04-20T03:36:06.096Z,4.3
2023-04-20T03:37:06.366Z,4.3
2023-04-20T03:38:06.714Z,4.3
2023-04-20T03:39:06.993Z,4.3
2023-04-20T03:40:06.363Z,4.3
2023-04-20T03:41:06.778Z,4.3
2023-04-20T03:42:06.802Z,4.3
2023-04-20T03:44:06.204Z,4.4
2023-04-20T03:45:06.567Z,4.4
2023-04-20T03:46:06.974Z,4.4
2023-04-20T03:47:06.880Z,4.4
2023-04-20T03:51:06.775Z,4.4
2023-04-20T03:52:06.125Z,4.4
2023-04-20T03:53:06.291Z,4.4
2023-04-20T03:54:06.382Z,4.4
2023-04-20T03:55:06.935Z,4.4
2023-04-20T03:56:06.167Z,4.4
2023-04-20T03:57:06.405Z,4.4
2023-04-20T03:58:06.622Z,4.4
2023-04-20T03:59:06.885Z,4.4
2023-04-20T04:00:06.182Z,4.4
2023-04-20T04:01:06.511Z,4.5
2023-04-20T04:02:06.892Z,4.5
2023-04-20T04:03:06.405Z,4.5
2023-04-20T04:04:06.917Z,4.5
2023-04-20T04:05:06.937Z,4.4
2023-04-20T04:06:06.360Z,4.4
2023-04-20T04:08:06.506Z,4.5
2023-04-20T04:09:06.764Z,4.5
2023-04-20T04:10:07.020Z,4.5
2023-04-20T04:11:06.234Z,4.5
2023-04-20T04:12:06.341Z,4.5
2023-04-20T04:13:06.553Z,4.5
2023-04-20T04:14:06.981Z,4.5
2023-04-20T04:15:06.325Z,4.5
2023-04-20T04:16:06.292Z,4.5
2023-04-20T04:17:06.664Z,4.5
2023-04-20T04:18:06.957Z,4.5
2023-04-20T04:21:06.521Z,4.5
2023-04-20T04:22:06.826Z,4.5
2023-04-20T04:23:06.878Z,4.6
2023-04-20T04:24:06.011Z,4.6
2023-04-20T04:25:06.471Z,4.6
2023-04-20T04:26:06.658Z,4.6
2023-04-20T04:27:06.848Z,4.6
2023-04-20T04:28:06.185Z,4
2023-04-20T04:29:06.498Z,4
2023-04-20T04:30:06.703Z,4.6
2023-04-20T04:31:06.853Z,4.6
2023-04-20T04:32:06.165Z,4.6
2023-04-20T04:33:06.726Z,4.5
2023-04-20T04:35:07.054Z,4.6
2023-04-20T04:36:05.828Z,4.6
2023-04-20T04:37:06.954Z,4.5
2023-04-20T04:38:06.294Z,4.5
2023-04-20T04:39:06.705Z,4.6
2023-04-20T04:40:06.976Z,4.5
2023-04-20T04:41:06.291Z,4.6
2023-04-20T04:42:08.998Z,4.5
2023-04-20T04:45:06.135Z,4.5
2023-04-20T04:46:06.409Z,4
2023-04-20T04:47:06.511Z,4.5
2023-04-20T04:48:10.194Z,4.5
2023-04-20T04:49:05.921Z,4.5
2023-04-20T04:50:06.308Z,4.5
2023-04-20T04:51:06.475Z,4.5
2023-04-20T04:52:06.594Z,4.5
2023-04-20T04:53:07.035Z,4.5
2023-04-20T04:54:06.198Z,4.5
2023-04-20T04:55:06.060Z,4.6
2023-04-20T04:56:06.509Z,4.6
2023-04-20T04:57:06.791Z,4.6
2023-04-20T04:58:06.138Z,4.6
2023-04-20T04:59:06.393Z,4.6
2023-04-20T05:00:06.595Z,4.6
2023-04-20T05:01:06.810Z,4.6
2023-04-20T05:02:05.970Z,4.6
2023-04-20T05:03:06.664Z,4.6
2023-04-20T05:04:07.149Z,4.6
2023-04-20T05:07:06.530Z,4.6
2023-04-20T05:08:06.710Z,4.7
2023-04-20T05:09:05.995Z,4.6
2023-04-20T05:10:06.281Z,4.6
2023-04-20T05:11:06.651Z,4.7
2023-04-20T05:12:06.888Z,4.7
2023-04-20T05:13:06.323Z,4.7
2023-04-20T05:14:06.401Z,4.7
2023-04-20T05:15:06.749Z,4.7
2023-04-20T05:16:06.969Z,4.7
2023-04-20T05:17:06.278Z,4.7
2023-04-20T05:18:06.558Z,4.7
2023-04-20T05:19:06.794Z,4.7
2023-04-20T05:22:06.012Z,4.8
2023-04-20T05:23:06.157Z,4.7
2023-04-20T05:24:06.613Z,4.7
2023-04-20T05:25:06.920Z,4.7
2023-04-20T05:26:06.921Z,4.8
2023-04-20T05:27:06.105Z,4.8
2023-04-20T05:28:06.383Z,4.8
2023-04-20T05:29:06.363Z,4.8
2023-04-20T05:30:24.086Z,4.8
2023-04-20T05:32:06.607Z,4.8
2023-04-20T05:33:06.969Z,4
2023-04-20T05:35:06.237Z,4.8
2023-04-20T05:36:06.254Z,4.8
2023-04-20T05:37:06.468Z,4.8
2023-04-20T05:38:06.774Z,4.8
2023-04-20T05:39:06.921Z,4.8
2023-04-20T05:40:06.366Z,4.8
2023-04-20T05:41:06.704Z,4.8
2023-04-20T05:42:06.807Z,4.8
2023-04-20T05:43:06.136Z,4.8
2023-04-20T05:44:06.087Z,4.8
2023-04-20T05:45:06.328Z,4.8
2023-04-20T05:46:06.910Z,4
2023-04-20T05:47:06.914Z,4.8
2023-04-20T05:48:06.148Z,4.8
2023-04-20T05:49:06.280Z,4.8
2023-04-20T05:50:06.815Z,4
2023-04-20T05:51:06.836Z,4
2023-04-20T05:52:05.974Z,4.8
2023-04-20T05:53:06.625Z,4.8
2023-04-20T05:54:06.404Z,4.8
2023-04-20T05:55:06.841Z,4.8
2023-04-20T05:56:06.771Z,4.8
2023-04-20T05:57:06.103Z,4.8
2023-04-20T05:58:06.232Z,4.8
2023-04-20T05:59:06.592Z,4.8
2023-04-20T06:00:06.870Z,4
2023-04-20T06:02:06.655Z,4.8
2023-04-20T06:03:07.414Z,4.8
2023-04-20T06:04:06.542Z,4.8
2023-04-20T06:05:06.929Z,4.8
2023-04-20T06:06:07.104Z,4.9
2023-04-20T06:07:06.121Z,4.8
2023-04-20T06:08:06.512Z,4.9
2023-04-20T06:09:07.124Z,4.9
2023-04-20T06:10:06.869Z,4.9
2023-04-20T06:11:06.071Z,4.9
2023-04-20T06:12:06.340Z,5
2023-04-20T06:13:06.685Z,4.9
2023-04-20T06:14:06.953Z,4.9
2023-04-20T06:18:06.804Z,4.9
2023-04-20T06:19:05.926Z,4.9
2023-04-20T06:20:06.533Z,4.9
2023-04-20T06:21:06.085Z,4.8
2023-04-20T06:22:06.317Z,4.8
2023-04-20T06:23:06.656Z,4.8
2023-04-20T06:24:06.591Z,4.8
2023-04-20T06:25:06.893Z,4.8
2023-04-20T06:28:06.076Z,4.8
2023-04-20T06:29:06.262Z,4.8
2023-04-20T06:30:06.564Z,4.8
2023-04-20T06:31:06.989Z,4.8
2023-04-20T06:32:06.198Z,4.9
2023-04-20T06:33:06.705Z,4.9
2023-04-20T06:34:06.757Z,4.9
2023-04-20T06:35:06.885Z,4.9
2023-04-20T06:36:06.189Z,4.9
2023-04-20T06:37:06.198Z,4.9
2023-04-20T06:38:06.815Z,4.9
2023-04-20T06:39:06.925Z,4.9
2023-04-20T06:40:06.081Z,4.9
2023-04-20T06:41:06.183Z,4.9
2023-04-20T06:42:06.498Z,4.9
2023-04-20T06:43:05.986Z,5
2023-04-20T06:44:06.281Z,5
2023-04-20T06:45:06.625Z,5
2023-04-20T06:46:06.001Z,5
2023-04-20T06:47:06.451Z,5
2023-04-20T06:48:08.388Z,5
2023-04-20T06:49:06.080Z,5
2023-04-20T06:50:06.394Z,5
2023-04-20T06:51:06.412Z,5
2023-04-20T06:52:06.591Z,5.1
2023-04-20T06:53:06.699Z,5.1
2023-04-20T06:54:06.105Z,5.1
2023-04-20T06:55:06.328Z,5
2023-04-20T06:56:06.686Z,5.1
2023-04-20T06:57:06.184Z,5.1
2023-04-20T06:58:06.256Z,5.1
2023-04-20T06:59:06.568Z,5.1
2023-04-20T07:00:06.933Z,5
2023-04-20T07:01:06.576Z,5
2023-04-20T07:02:06.975Z,5
2023-04-20T07:03:07.324Z,5
2023-04-20T07:04:06.394Z,5
2023-04-20T07:05:06.618Z,5.1
2023-04-20T07:06:06.882Z,5
2023-04-20T07:07:05.939Z,5
2023-04-20T07:08:06.046Z,5
2023-04-20T07:09:06.511Z,5.1
2023-04-20T07:10:06.852Z,5.1
2023-04-20T07:11:06.112Z,5.1
2023-04-20T07:12:06.392Z,5.1
2023-04-20T07:13:06.470Z,5.1
2023-04-20T07:14:07.066Z,5.1
2023-04-20T07:18:06.195Z,5.1
2023-04-20T07:19:06.466Z,5.1
2023-04-20T07:20:06.540Z,5
2023-04-20T07:21:06.256Z,5
2023-04-20T07:22:06.436Z,5.1
2023-04-20T07:23:06.016Z,5
2023-04-20T07:24:06.453Z,5
2023-04-20T07:25:06.619Z,5
2023-04-20T07:26:06.856Z,5.1
2023-04-20T07:27:06.154Z,5.1
2023-04-20T07:28:06.353Z,5.1
2023-04-20T07:29:06.716Z,5.1
2023-04-20T07:30:05.930Z,5.2
2023-04-20T07:31:06.503Z,5.1
2023-04-20T07:32:06.549Z,5.1
2023-04-20T07:33:06.989Z,5.1
2023-04-20T07:34:06.038Z,5.1
2023-04-20T07:35:06.282Z,5.1
2023-04-20T07:36:06.444Z,5.1
2023-04-20T07:37:06.719Z,5.1
2023-04-20T07:41:06.621Z,5.2
2023-04-20T07:42:05.963Z,5.1
2023-04-20T07:43:06.363Z,5.1
2023-04-20T07:44:06.740Z,5.1
2023-04-20T07:45:06.808Z,5.1
2023-04-20T07:46:06.539Z,5.2
2023-04-20T07:47:07.321Z,5.2
2023-04-20T07:48:06.966Z,5.2
2023-04-20T07:52:17.865Z,5.3
2023-04-20T07:54:06.463Z,5.4
2023-04-20T07:55:06.808Z,5.3
2023-04-20T07:56:06.612Z,5.3
2023-04-20T07:57:06.570Z,5.3
2023-04-20T07:58:06.932Z,5.3
2023-04-20T07:59:06.075Z,5.3
2023-04-20T08:00:06.404Z,5.3
2023-04-20T08:01:06.678Z,5.3
2023-04-20T08:02:06.983Z,5.4
2023-04-20T08:03:06.400Z,5
2023-04-20T08:04:07.397Z,5
2023-04-20T08:05:07.879Z,5.4
2023-04-20T08:06:06.696Z,5.4
2023-04-20T08:07:06.674Z,5.4
2023-04-20T08:08:05.519Z,5.4
2023-04-20T08:09:06.974Z,5.4
2023-04-20T08:10:06.173Z,5.4
2023-04-20T08:11:06.486Z,5.4
2023-04-20T08:12:06.803Z,5.4
2023-04-20T08:13:05.939Z,5
2023-04-20T08:14:06.229Z,5.4
2023-04-20T08:15:06.621Z,5.4
2023-04-20T08:16:07.439Z,5.4
2023-04-20T08:17:06.123Z,5.5
2023-04-20T08:18:06.339Z,5.4
2023-04-20T08:19:06.616Z,5.4
2023-04-20T08:20:06.548Z,5.5
2023-04-20T08:21:07.242Z,5.5
2023-04-20T08:22:06.169Z,5.4
2023-04-20T08:23:06.531Z,5.5
2023-04-20T08:24:06.303Z,5.5
2023-04-20T08:25:06.867Z,5.4
2023-04-20T08:26:06.418Z,5.4
2023-04-20T08:27:06.656Z,5.4
2023-04-20T08:28:11.816Z,5.4
2023-04-20T08:30:06.565Z,5.4
2023-04-20T08:31:06.293Z,5.4
2023-04-20T08:32:06.415Z,5.5
2023-04-20T08:33:06.902Z,5.5
2023-04-20T08:34:06.139Z,5.4
2023-04-20T08:35:06.083Z,5.4
2023-04-20T08:36:06.220Z,5.4
2023-04-20T08:39:06.116Z,5.4
2023-04-20T08:40:06.487Z,5.5
2023-04-20T08:41:06.180Z,5.4
2023-04-20T08:42:06.374Z,5.6
2023-04-20T08:43:06.819Z,5.6
2023-04-20T08:44:06.909Z,5.6
2023-04-20T08:45:06.073Z,5.6
2023-04-20T08:46:06.293Z,5.6
2023-04-20T08:47:06.651Z,5.7
2023-04-20T08:48:06.950Z,5.6
2023-04-20T08:50:06.310Z,5.7
2023-04-20T08:51:06.379Z,5.7
2023-04-20T08:52:06.615Z,5.7
2023-04-20T08:53:05.945Z,5.7
2023-04-20T08:54:06.284Z,5.7
2023-04-20T08:55:06.143Z,5.6
2023-04-20T08:56:06.638Z,5.6
2023-04-20T08:57:06.695Z,5.8
2023-04-20T08:58:06.048Z,5.8
2023-04-20T08:59:06.233Z,5.8
2023-04-20T09:00:06.780Z,5.8
2023-04-20T09:01:06.752Z,5.8
2023-04-20T09:02:06.281Z,5.9
2023-04-20T09:03:06.863Z,5.9
2023-04-20T09:04:06.982Z,5.9
2023-04-20T09:05:07.357Z,5.9
2023-04-20T09:07:06.690Z,5.9
2023-04-20T09:08:05.995Z,6
2023-04-20T09:09:06.116Z,6
2023-04-20T09:10:06.559Z,6
2023-04-20T09:11:06.509Z,6.1
2023-04-20T09:12:07.082Z,6.2
2023-04-20T09:13:06.319Z,6.3
2023-04-20T09:14:06.657Z,6.3
2023-04-20T09:15:06.859Z,6.4
2023-04-20T09:20:06.240Z,6.7
2023-04-20T09:21:06.362Z,6.8
2023-04-20T09:22:06.652Z,6.8
2023-04-20T09:23:06.831Z,6.8
2023-04-20T09:24:06.112Z,6.9
2023-04-20T09:25:06.220Z,6.9
2023-04-20T09:26:07.029Z,6.9
2023-04-20T09:27:06.021Z,6.9
2023-04-20T09:28:06.364Z,6.9
2023-04-20T09:29:06.679Z,6.9
2023-04-20T09:32:06.519Z,7
2023-04-20T09:33:05.931Z,6.9
2023-04-20T09:34:06.511Z,7
2023-04-20T09:35:06.608Z,7
2023-04-20T09:36:06.696Z,6.9
2023-04-20T09:37:08.924Z,6.9
2023-04-20T09:39:06.439Z,6.9
2023-04-20T09:40:06.769Z,6.9
2023-04-20T09:41:06.023Z,6.9
2023-04-20T09:42:06.571Z,6.9
2023-04-20T09:43:06.783Z,6.8
2023-04-20T09:44:06.323Z,6.9
2023-04-20T09:45:06.325Z,6.9
2023-04-20T09:46:06.817Z,6.8
2023-04-20T09:49:06.196Z,6.8
2023-04-20T09:50:38.463Z,6.8
2023-04-20T09:52:06.899Z,6.8
2023-04-20T09:53:06.134Z,6.8
2023-04-20T09:54:05.426Z,6.8
2023-04-20T09:55:06.764Z,6.8
2023-04-20T10:01:06.166Z,6
2023-04-20T10:02:06.647Z,6.8
2023-04-20T10:03:07.155Z,6.8
2023-04-20T10:04:06.585Z,6.8
2023-04-20T10:05:06.446Z,6.8
2023-04-20T10:06:06.570Z,6.8
2023-04-20T10:07:06.908Z,6.8
2023-04-20T10:08:06.348Z,6.8
2023-04-20T10:09:06.663Z,6.8
2023-04-20T10:10:05.902Z,6.8
2023-04-20T10:11:06.071Z,6
2023-04-20T10:12:06.340Z,6.8
2023-04-20T10:13:06.857Z,6.8
2023-04-20T10:14:06.942Z,6.8
2023-04-20T10:15:06.259Z,6.8
2023-04-20T10:16:06.053Z,6.8
2023-04-20T10:17:07.217Z,6.8
2023-04-20T10:19:09.331Z,6.8
2023-04-20T10:20:06.027Z,6.9
2023-04-20T10:21:06.279Z,7
2023-04-20T10:22:06.630Z,7
2023-04-20T10:23:06.825Z,6.9
2023-04-20T10:24:06.031Z,7
2023-04-20T10:25:06.272Z,7.1
2023-04-20T10:26:06.553Z,7
2023-04-20T10:27:06.925Z,7.1
2023-04-20T10:28:05.853Z,7.1
2023-04-20T10:29:06.250Z,7.2
2023-04-20T10:30:06.721Z,7.2
2023-04-20T10:31:07.085Z,7.2
2023-04-20T10:32:06.048Z,7.2
2023-04-20T10:33:06.531Z,7.3
2023-04-20T10:36:06.030Z,7.4
2023-04-20T10:37:06.276Z,7.4
2023-04-20T10:38:06.647Z,7.5
2023-04-20T10:39:06.920Z,7.6
2023-04-20T10:40:09.641Z,7.6
2023-04-20T10:42:06.700Z,7.6
2023-04-20T10:43:06.844Z,7.7
2023-04-20T10:44:06.351Z,7.7
2023-04-20T10:45:06.542Z,7.8
2023-04-20T10:46:06.998Z,7.8
2023-04-20T10:47:06.189Z,7.8
2023-04-20T10:48:06.462Z,7.8
2023-04-20T10:49:06.800Z,7.9
2023-04-20T10:50:07.075Z,8
2023-04-20T10:51:06.242Z,8
2023-04-20T10:52:06.496Z,8
2023-04-20T10:55:06.135Z,8.2
2023-04-20T10:56:06.294Z,8.1
2023-04-20T10:57:06.304Z,8.2
2023-04-20T10:58:06.570Z,8.2
2023-04-20T10:59:06.762Z,8.2
2023-04-20T11:00:06.170Z,8.2
2023-04-20T11:01:06.335Z,8.2
2023-04-20T11:02:06.754Z,8.2
2023-04-20T11:03:07.149Z,8.2
2023-04-20T11:04:05.932Z,8.2
2023-04-20T11:05:06.442Z,8.1
2023-04-20T11:06:06.553Z,8.1
2023-04-20T11:07:06.621Z,8.1
2023-04-20T11:08:06.940Z,8.1
2023-04-20T11:09:06.194Z,8.2
2023-04-20T11:10:06.424Z,8.2
2023-04-20T11:11:06.504Z,8.2
2023-04-20T11:12:06.823Z,8.2
2023-04-20T11:13:06.937Z,8.3
2023-04-20T11:14:06.276Z,8.3
2023-04-20T11:15:06.538Z,8.3
2023-04-20T11:16:06.029Z,8.4
2023-04-20T11:17:06.710Z,8.4
2023-04-20T11:18:06.952Z,8.4
2023-04-20T11:20:06.268Z,8.4
2023-04-20T11:21:06.762Z,8.5
2023-04-20T11:22:06.841Z,8.5
2023-04-20T11:23:06.964Z,8.5
2023-04-20T11:24:06.265Z,8.4
2023-04-20T11:25:06.458Z,8.4
2023-04-20T11:26:05.934Z,8.5
2023-04-20T11:27:06.278Z,8.4
2023-04-20T11:28:06.241Z,8.4
2023-04-20T11:29:06.828Z,8.5
2023-04-20T11:34:09.118Z,8.6
2023-04-20T11:35:09.444Z,8.6
2023-04-20T11:37:06.155Z,8.7
2023-04-20T11:38:06.416Z,8.7
2023-04-20T11:39:06.849Z,8.7
2023-04-20T11:40:05.853Z,8.8
2023-04-20T11:41:06.899Z,8.8
2023-04-20T11:42:06.672Z,8.8
2023-04-20T11:43:07.242Z,8.9
2023-04-20T11:44:06.045Z,9
2023-04-20T11:45:06.320Z,9
2023-04-20T11:46:06.609Z,9
2023-04-20T11:47:06.640Z,9
2023-04-20T11:48:07.247Z,8.9
2023-04-20T11:49:06.028Z,8.9
2023-04-20T11:50:06.182Z,8.9
2023-04-20T11:51:06.484Z,9
2023-04-20T11:52:06.432Z,9
2023-04-20T11:53:06.852Z,9
2023-04-20T11:54:05.773Z,9
2023-04-20T11:55:06.405Z,9
2023-04-20T11:56:06.873Z,9
2023-04-20T11:57:06.095Z,9.1
2023-04-20T11:58:06.119Z,9.2
2023-04-20T11:59:06.719Z,9.3
2023-04-20T12:00:06.987Z,9.3
2023-04-20T12:01:06.805Z,9.4
2023-04-20T12:02:06.089Z,9.4
2023-04-20T12:03:06.613Z,9
2023-04-20T12:04:07.804Z,9
2023-04-20T12:05:07.032Z,9.7
2023-04-20T12:07:06.819Z,9
2023-04-20T12:08:06.895Z,9.8
2023-04-20T12:09:05.948Z,9.9
2023-04-20T12:10:06.392Z,9.8
2023-04-20T12:11:06.598Z,9.8
2023-04-20T12:12:06.815Z,9.8
2023-04-20T12:13:06.984Z,9.6
2023-04-20T12:14:06.177Z,9.6
2023-04-20T12:15:06.517Z,9.6
2023-04-20T12:16:06.361Z,9.5
2023-04-20T12:17:06.464Z,9.5
2023-04-20T12:18:06.967Z,9
2023-04-20T12:19:06.736Z,9.6
2023-04-20T12:20:06.033Z,9.6
2023-04-20T12:21:06.292Z,9.7
2023-04-20T12:22:06.766Z,9.7
2023-04-20T12:23:06.704Z,9.7
2023-04-20T12:24:06.936Z,9.7
2023-04-20T12:25:06.010Z,9.7
2023-04-20T12:26:06.056Z,9.8
2023-04-20T12:27:06.333Z,9.8
2023-04-20T12:28:06.510Z,9.8
2023-04-20T12:29:06.829Z,9.7
2023-04-20T12:30:06.340Z,9.8
2023-04-20T12:31:06.549Z,9.8
2023-04-20T12:32:06.818Z,9.8
2023-04-20T12:33:07.037Z,9.8
2023-04-20T12:37:06.059Z,9.8
2023-04-20T12:38:06.134Z,9.9
2023-04-20T12:39:06.610Z,9.9
2023-04-20T12:40:06.997Z,9.9
2023-04-20T12:41:06.387Z,9.9
2023-04-20T12:42:06.792Z,9.9
2023-04-20T12:43:06.023Z,10
2023-04-20T12:44:12.900Z,9.9
2023-04-20T12:46:06.908Z,10
2023-04-20T12:47:06.369Z,10
2023-04-20T12:48:06.555Z,10
2023-04-20T12:49:06.716Z,10.2
2023-04-20T12:50:05.840Z,10.2
2023-04-20T12:51:06.268Z,10.3
2023-04-20T12:52:09.019Z,10.5
2023-04-20T12:53:05.862Z,10.5
2023-04-20T12:54:06.272Z,10.7
2023-04-20T12:55:06.537Z,10.7
2023-04-20T12:56:06.849Z,10.8
2023-04-20T12:57:05.998Z,10.8
2023-04-20T12:58:06.271Z,10.8
2023-04-20T12:59:06.524Z,10.8
2023-04-20T13:00:06.982Z,10.9
2023-04-20T13:01:06.479Z,11
2023-04-20T13:02:07.042Z,11
2023-04-20T13:03:07.608Z,11
2023-04-20T13:04:06.536Z,11
2023-04-20T13:05:06.511Z,10.9
2023-04-20T13:06:06.654Z,10.9
2023-04-20T13:07:06.785Z,10.8
2023-04-20T13:08:06.026Z,10.7
2023-04-20T13:09:06.169Z,10.7
2023-04-20T13:10:06.500Z,10.7
2023-04-20T13:11:06.207Z,10.7
2023-04-20T13:12:06.053Z,10.6
2023-04-20T13:13:06.485Z,10.6
2023-04-20T13:14:06.676Z,10.6
2023-04-20T13:20:06.354Z,10.6
2023-04-20T13:21:06.247Z,10.6
2023-04-20T13:22:05.177Z,10.8
2023-04-20T13:23:06.352Z,10.8
2023-04-20T13:24:06.613Z,10.8
2023-04-20T13:25:06.878Z,10.8
2023-04-20T13:26:06.321Z,10.9
2023-04-20T13:27:06.682Z,10.9
2023-04-20T13:28:06.953Z,11
2023-04-20T13:29:05.971Z,11.1
2023-04-20T13:30:06.262Z,11.2
2023-04-20T13:31:06.127Z,11.2
2023-04-20T13:32:06.682Z,11
2023-04-20T13:33:06.925Z,11.4
2023-04-20T13:34:05.999Z,11.4
2023-04-20T13:35:06.604Z,11.3
2023-04-20T13:36:06.820Z,11.3
2023-04-20T13:37:06.073Z,11
2023-04-20T13:38:06.058Z,11.4
2023-04-20T13:39:06.489Z,11.3
2023-04-20T13:40:06.611Z,11.3
2023-04-20T13:41:06.977Z,11.3
2023-04-20T13:46:06.332Z,11.3
2023-04-20T13:47:06.457Z,11.3
2023-04-20T13:48:06.893Z,11.2
2023-04-20T13:49:06.057Z,11.2
2023-04-20T13:50:06.497Z,11.2
2023-04-20T13:51:06.795Z,11.2
2023-04-20T13:52:06.098Z,11.2
2023-04-20T13:53:07.134Z,11.3
2023-04-20T13:54:06.417Z,11.4
2023-04-20T13:55:06.918Z,11.4
2023-04-20T14:00:07.340Z,11.5
2023-04-20T14:01:06.334Z,11.5
2023-04-20T14:02:06.793Z,11.6
2023-04-20T14:03:06.252Z,11.6
2023-04-20T14:04:06.683Z,11.6
2023-04-20T14:05:06.566Z,11.6
2023-04-20T14:06:06.721Z,11.6
2023-04-20T14:07:06.929Z,11.6
2023-04-20T14:08:06.189Z,11.6
2023-04-20T14:09:06.487Z,11.7
2023-04-20T14:10:06.905Z,11.7
2023-04-20T14:11:06.696Z,11.8
2023-04-20T14:12:06.105Z,11.8
2023-04-20T14:13:06.239Z,11.9
2023-04-20T14:14:06.515Z,11.9
2023-04-20T14:15:06.912Z,11.9
2023-04-20T14:16:06.442Z,11.9
2023-04-20T14:17:06.465Z,11.9
2023-04-20T14:18:06.916Z,12
2023-04-20T14:19:06.908Z,12
2023-04-20T14:20:06.162Z,12
2023-04-20T14:21:06.215Z,12
2023-04-20T14:22:06.565Z,12
2023-04-20T14:23:09.497Z,12
2023-04-20T14:24:06.694Z,12
2023-04-20T14:25:06.179Z,12.2
2023-04-20T14:26:06.438Z,12.2
2023-04-20T14:27:06.718Z,12.2
2023-04-20T14:28:06.121Z,12.2
2023-04-20T14:29:06.396Z,12.3
2023-04-20T14:30:06.704Z,12.3
2023-04-20T14:31:06.796Z,12.3
2023-04-20T14:32:06.859Z,12.3
2023-04-20T14:33:06.359Z,12.3
2023-04-20T14:34:06.431Z,12.3
2023-04-20T14:35:09.433Z,12.3
2023-04-20T14:37:06.384Z,12.4
2023-04-20T14:38:06.941Z,12.4
2023-04-20T14:39:06.124Z,12.4
2023-04-20T14:40:06.719Z,12.4
2023-04-20T14:41:06.527Z,12.5
2023-04-20T14:42:06.169Z,12.5
2023-04-20T14:43:06.532Z,12.5
2023-04-20T14:44:06.639Z,12.4
2023-04-20T14:48:06.505Z,12.4
2023-04-20T14:49:05.939Z,12.4
2023-04-20T14:50:06.233Z,12.4
2023-04-20T14:51:06.604Z,12.4
2023-04-20T14:52:06.719Z,12.4
2023-04-20T14:53:06.783Z,12.4
2023-04-20T14:54:06.124Z,12.4
2023-04-20T14:55:06.296Z,12.3
2023-04-20T14:56:06.880Z,12.4
2023-04-20T14:57:06.121Z,13
2023-04-20T14:58:06.238Z,12.3
2023-04-20T14:59:06.465Z,12.4
2023-04-20T15:00:06.719Z,12.3
2023-04-20T15:01:06.838Z,12.4
2023-04-20T15:02:06.323Z,12.4
2023-04-20T15:03:07.230Z,12.4
2023-04-20T15:04:07.325Z,12.4
2023-04-20T15:05:10.709Z,12.4
2023-04-20T15:07:06.341Z,12.4
2023-04-20T15:08:06.465Z,12.4
2023-04-20T15:09:06.851Z,12.4
2023-04-20T15:10:06.321Z,12.4
2023-04-20T15:12:06.594Z,12.4
2023-04-20T15:13:06.893Z,12.4
2023-04-20T15:14:07.018Z,12.4
2023-04-20T15:15:06.200Z,12.4
2023-04-20T15:16:06.772Z,12.5
2023-04-20T15:17:06.956Z,12.4
2023-04-20T15:18:06.280Z,13
2023-04-20T15:19:06.273Z,12.4
2023-04-20T15:20:06.904Z,12.4
2023-04-20T15:21:06.215Z,12.4
2023-04-20T15:22:06.731Z,12.4
2023-04-20T15:23:06.983Z,12.4
2023-04-20T15:24:06.161Z,12.4
2023-04-20T15:25:06.440Z,12.4
2023-04-20T15:26:06.754Z,12.4
2023-04-20T15:27:09.327Z,12.4
2023-04-20T15:31:06.181Z,12.4
2023-04-20T15:32:06.377Z,12.4
2023-04-20T15:33:09.350Z,12.4
2023-04-20T15:36:06.106Z,12.4
2023-04-20T15:37:06.452Z,12.4
2023-04-20T15:38:06.700Z,12.4
2023-04-20T15:39:05.997Z,12.4
2023-04-20T15:40:06.124Z,12.4
2023-04-20T15:41:06.128Z,12.5
2023-04-20T15:42:06.446Z,12.5
2023-04-20T15:43:06.691Z,12.5
2023-04-20T15:44:06.784Z,12.6
2023-04-20T15:45:06.062Z,12.5